createdAt,value
2018-01-20T00:00:56.183Z,946.73
2018-01-20T00:01:56.102Z,946.72
2018-01-20T00:02:56.099Z,946.69
2018-01-20T00:03:56.122Z,946.72
2018-01-20T00:04:56.046Z,946.7
2018-01-20T00:05:56.027Z,946.7
2018-01-20T00:06:56.022Z,946.73
2018-01-20T00:07:55.989Z,946.72
2018-01-20T00:08:55.972Z,946.66
2018-01-20T00:09:55.953Z,946.65
2018-01-20T00:10:55.934Z,946.59
2018-01-20T00:11:55.920Z,946.63
2018-01-20T00:12:55.898Z,946.62
2018-01-20T00:13:55.880Z,946.63
2018-01-20T00:14:55.871Z,946.61
2018-01-20T00:15:55.842Z,946.64
2018-01-20T00:16:55.823Z,946.62
2018-01-20T00:17:55.807Z,946.61
2018-01-20T00:18:55.793Z,946.6
2018-01-20T00:19:55.768Z,946.61
2018-01-20T00:20:55.752Z,946.59
2018-01-20T00:21:55.759Z,946.53
2018-01-20T00:22:55.714Z,946.6
2018-01-20T00:23:55.694Z,946.59
2018-01-20T00:24:55.676Z,946.49
2018-01-20T00:25:55.659Z,946.54
2018-01-20T00:26:55.648Z,946.55
2018-01-20T00:27:55.623Z,946.49
2018-01-20T00:28:55.602Z,946.49
2018-01-20T00:29:55.582Z,946.56
2018-01-20T00:30:55.569Z,946.54
2018-01-20T00:31:55.564Z,946.47
2018-01-20T00:32:55.528Z,946.48
2018-01-20T00:33:55.509Z,946.6
2018-01-20T00:34:55.489Z,946.6
2018-01-20T00:35:55.472Z,946.54
2018-01-20T00:36:55.453Z,946.55
2018-01-20T00:37:55.434Z,946.48
2018-01-20T00:38:55.415Z,946.56
2018-01-20T00:39:55.408Z,946.52
2018-01-20T00:40:55.377Z,946.49
2018-01-20T00:41:55.366Z,946.54
2018-01-20T00:42:55.345Z,946.58
2018-01-20T00:43:55.331Z,946.49
2018-01-20T00:44:55.304Z,946.57
2018-01-20T00:45:55.285Z,946.6
2018-01-20T00:46:55.268Z,946.61
2018-01-20T00:47:55.247Z,946.61
2018-01-20T00:48:55.230Z,946.62
2018-01-20T00:49:55.211Z,946.63
2018-01-20T00:50:55.195Z,946.66
2018-01-20T00:51:55.173Z,946.64
2018-01-20T00:52:55.155Z,946.63
2018-01-20T00:53:55.137Z,946.63
2018-01-20T00:54:55.117Z,946.63
2018-01-20T00:55:55.107Z,946.63
2018-01-20T00:56:55.081Z,946.6
2018-01-20T00:57:55.082Z,946.61
2018-01-20T00:58:55.049Z,946.58
2018-01-20T00:59:55.026Z,946.6
2018-01-20T01:00:55.024Z,946.61
2018-01-20T01:01:54.989Z,946.64
2018-01-20T01:02:54.972Z,946.57
2018-01-20T01:03:54.952Z,946.61
2018-01-20T01:04:54.934Z,946.63
2018-01-20T01:05:54.913Z,946.58
2018-01-20T01:06:54.896Z,946.57
2018-01-20T01:07:54.879Z,946.57
2018-01-20T01:08:54.858Z,946.56
2018-01-20T01:09:54.840Z,946.57
2018-01-20T01:10:54.821Z,946.57
2018-01-20T01:11:54.801Z,946.59
2018-01-20T01:12:54.784Z,946.57
2018-01-20T01:13:54.765Z,946.58
2018-01-20T01:14:54.746Z,946.57
2018-01-20T01:15:54.727Z,946.56
2018-01-20T01:16:54.709Z,946.57
2018-01-20T01:17:54.689Z,946.57
2018-01-20T01:18:54.672Z,946.56
2018-01-20T01:19:54.653Z,946.58
2018-01-20T01:20:54.634Z,946.54
2018-01-20T01:21:54.615Z,946.57
2018-01-20T01:22:54.597Z,946.56
2018-01-20T01:23:54.595Z,946.56
2018-01-20T01:24:54.560Z,946.52
2018-01-20T01:25:54.541Z,946.53
2018-01-20T01:26:54.524Z,946.49
2018-01-20T01:27:54.511Z,946.48
2018-01-20T01:28:54.484Z,946.54
2018-01-20T01:29:54.467Z,946.48
2018-01-20T01:30:54.449Z,946.53
2018-01-20T01:31:54.436Z,946.5
2018-01-20T01:32:54.410Z,946.51
2018-01-20T01:33:54.414Z,946.51
2018-01-20T01:34:54.375Z,946.53
2018-01-20T01:35:54.354Z,946.55
2018-01-20T01:36:54.337Z,946.57
2018-01-20T01:37:54.317Z,946.56
2018-01-20T01:38:54.298Z,946.52
2018-01-20T01:39:54.279Z,946.52
2018-01-20T01:40:54.262Z,946.53
2018-01-20T01:41:54.242Z,946.55
2018-01-20T01:42:54.223Z,946.53
2018-01-20T01:43:54.205Z,946.53
2018-01-20T01:44:54.190Z,946.54
2018-01-20T01:45:54.171Z,946.5
2018-01-20T01:46:54.149Z,946.56
2018-01-20T01:47:54.133Z,946.55
2018-01-20T01:48:54.129Z,946.58
2018-01-20T01:49:54.095Z,946.59
2018-01-20T01:50:54.078Z,946.51
2018-01-20T01:51:54.056Z,946.47
2018-01-20T01:52:54.038Z,946.52
2018-01-20T01:53:54.023Z,946.52
2018-01-20T01:54:54.001Z,946.48
2018-01-20T01:55:53.983Z,946.53
2018-01-20T01:56:53.962Z,946.53
2018-01-20T01:57:53.944Z,946.49
2018-01-20T01:58:53.925Z,946.48
2018-01-20T01:59:53.909Z,946.52
2018-01-20T02:00:53.888Z,946.5
2018-01-20T02:01:53.872Z,946.51
2018-01-20T02:02:53.852Z,946.48
2018-01-20T02:03:53.833Z,946.49
2018-01-20T02:04:53.813Z,946.5
2018-01-20T02:05:53.795Z,946.49
2018-01-20T02:06:53.777Z,946.43
2018-01-20T02:07:53.757Z,946.46
2018-01-20T02:08:53.738Z,946.45
2018-01-20T02:09:53.721Z,946.41
2018-01-20T02:10:53.702Z,946.45
2018-01-20T02:11:53.682Z,946.42
2018-01-20T02:12:53.663Z,946.41
2018-01-20T02:13:53.653Z,946.39
2018-01-20T02:14:53.640Z,946.42
2018-01-20T02:15:53.628Z,946.42
2018-01-20T02:16:53.591Z,946.39
2018-01-20T02:17:53.572Z,946.39
2018-01-20T02:18:53.552Z,946.39
2018-01-20T02:19:53.554Z,946.41
2018-01-20T02:20:53.516Z,946.38
2018-01-20T02:21:53.498Z,946.46
2018-01-20T02:22:53.533Z,946.35
2018-01-20T02:23:53.463Z,946.43
2018-01-20T02:24:53.440Z,946.38
2018-01-20T02:25:53.422Z,946.35
2018-01-20T02:26:53.405Z,946.34
2018-01-20T02:27:53.387Z,946.32
2018-01-20T02:28:53.366Z,946.31
2018-01-20T02:29:53.346Z,946.31
2018-01-20T02:30:53.329Z,946.26
2018-01-20T02:31:53.312Z,946.29
2018-01-20T02:32:53.292Z,946.26
2018-01-20T02:33:53.272Z,946.24
2018-01-20T02:34:53.254Z,946.22
2018-01-20T02:35:53.235Z,946.25
2018-01-20T02:36:53.216Z,946.23
2018-01-20T02:37:53.246Z,946.24
2018-01-20T02:38:53.178Z,946.24
2018-01-20T02:39:53.178Z,946.2
2018-01-20T02:40:53.140Z,946.26
2018-01-20T02:41:53.123Z,946.28
2018-01-20T02:42:53.105Z,946.29
2018-01-20T02:43:53.084Z,946.34
2018-01-20T02:44:53.064Z,946.34
2018-01-20T02:45:53.046Z,946.31
2018-01-20T02:46:53.027Z,946.37
2018-01-20T02:47:53.010Z,946.34
2018-01-20T02:48:52.989Z,946.31
2018-01-20T02:49:52.971Z,946.33
2018-01-20T02:50:52.953Z,946.3
2018-01-20T02:51:52.936Z,946.35
2018-01-20T02:52:52.914Z,946.27
2018-01-20T02:53:52.895Z,946.33
2018-01-20T02:54:52.876Z,946.31
2018-01-20T02:55:52.860Z,946.32
2018-01-20T02:56:52.838Z,946.29
2018-01-20T02:57:52.820Z,946.24
2018-01-20T02:58:52.812Z,946.31
2018-01-20T02:59:52.781Z,946.24
2018-01-20T03:00:52.764Z,946.28
2018-01-20T03:01:52.744Z,946.18
2018-01-20T03:02:52.726Z,946.22
2018-01-20T03:03:52.709Z,946.16
2018-01-20T03:04:52.687Z,946.23
2018-01-20T03:05:52.669Z,946.12
2018-01-20T03:06:52.651Z,946.15
2018-01-20T03:07:52.633Z,946.18
2018-01-20T03:08:52.625Z,946.19
2018-01-20T03:09:52.594Z,946.13
2018-01-20T03:10:52.575Z,946.18
2018-01-20T03:11:52.557Z,946.14
2018-01-20T03:12:52.538Z,946.17
2018-01-20T03:13:52.519Z,946.12
2018-01-20T03:14:52.501Z,946.09
2018-01-20T03:15:52.481Z,946.12
2018-01-20T03:16:52.463Z,946.12
2018-01-20T03:17:52.444Z,946.13
2018-01-20T03:18:52.426Z,946.11
2018-01-20T03:19:52.407Z,946.2
2018-01-20T03:20:52.389Z,946.14
2018-01-20T03:21:52.375Z,946.17
2018-01-20T03:22:52.352Z,946.16
2018-01-20T03:23:52.333Z,946.08
2018-01-20T03:24:52.328Z,946.11
2018-01-20T03:25:52.299Z,946.15
2018-01-20T03:26:52.277Z,946.06
2018-01-20T03:27:52.259Z,946.1
2018-01-20T03:28:52.239Z,946.05
2018-01-20T03:29:52.221Z,946.11
2018-01-20T03:30:52.203Z,946.03
2018-01-20T03:31:52.184Z,946.07
2018-01-20T03:32:52.166Z,946.15
2018-01-20T03:33:52.151Z,946.11
2018-01-20T03:34:52.130Z,946.13
2018-01-20T03:35:52.113Z,946.14
2018-01-20T03:36:52.092Z,946.09
2018-01-20T03:37:52.073Z,946.14
2018-01-20T03:38:52.054Z,946.11
2018-01-20T03:39:52.034Z,946.15
2018-01-20T03:40:52.016Z,946.1
2018-01-20T03:41:52.004Z,946.1
2018-01-20T03:42:51.978Z,946.04
2018-01-20T03:43:52.010Z,946.04
2018-01-20T03:44:51.941Z,946.05
2018-01-20T03:45:51.938Z,946.06
2018-01-20T03:46:51.904Z,946.08
2018-01-20T03:47:51.886Z,946.09
2018-01-20T03:48:51.867Z,946.12
2018-01-20T03:49:51.849Z,946.1
2018-01-20T03:50:51.831Z,946.12
2018-01-20T03:51:51.812Z,946.1
2018-01-20T03:52:51.793Z,946.12
2018-01-20T03:53:51.787Z,946.12
2018-01-20T03:54:51.756Z,946.12
2018-01-20T03:55:51.736Z,946.11
2018-01-20T03:56:51.730Z,946.09
2018-01-20T03:57:51.699Z,946.08
2018-01-20T03:58:51.681Z,946.06
2018-01-20T03:59:51.662Z,946.07
2018-01-20T04:00:51.644Z,946.09
2018-01-20T04:01:51.624Z,946.06
2018-01-20T04:02:51.606Z,946.03
2018-01-20T04:03:51.589Z,946.02
2018-01-20T04:04:51.571Z,946
2018-01-20T04:05:51.549Z,946.01
2018-01-20T04:06:51.536Z,946.02
2018-01-20T04:07:51.512Z,946.01
2018-01-20T04:08:51.494Z,945.93
2018-01-20T04:09:51.478Z,946
2018-01-20T04:10:51.457Z,945.95
2018-01-20T04:11:51.439Z,945.99
2018-01-20T04:12:51.418Z,945.99
2018-01-20T04:13:51.400Z,945.99
2018-01-20T04:14:51.382Z,946.01
2018-01-20T04:15:51.364Z,945.98
2018-01-20T04:16:51.349Z,945.99
2018-01-20T04:17:51.326Z,946
2018-01-20T04:18:51.310Z,946.02
2018-01-20T04:19:51.287Z,946.01
2018-01-20T04:20:51.269Z,945.97
2018-01-20T04:21:51.268Z,945.94
2018-01-20T04:22:51.233Z,945.93
2018-01-20T04:23:51.217Z,945.98
2018-01-20T04:24:51.194Z,945.97
2018-01-20T04:25:51.195Z,945.93
2018-01-20T04:26:51.163Z,945.94
2018-01-20T04:27:51.140Z,945.97
2018-01-20T04:28:51.120Z,945.95
2018-01-20T04:29:51.102Z,945.94
2018-01-20T04:30:51.084Z,946.01
2018-01-20T04:31:51.065Z,946.01
2018-01-20T04:32:51.047Z,945.98
2018-01-20T04:33:51.029Z,945.93
2018-01-20T04:34:51.008Z,945.96
2018-01-20T04:35:51.001Z,945.93
2018-01-20T04:36:50.972Z,945.91
2018-01-20T04:37:50.951Z,945.86
2018-01-20T04:38:50.934Z,945.87
2018-01-20T04:39:50.926Z,945.88
2018-01-20T04:40:50.899Z,945.86
2018-01-20T04:41:50.880Z,945.85
2018-01-20T04:42:50.859Z,945.83
2018-01-20T04:43:50.841Z,945.81
2018-01-20T04:44:50.822Z,945.81
2018-01-20T04:45:50.802Z,945.81
2018-01-20T04:46:50.784Z,945.8
2018-01-20T04:47:50.778Z,945.8
2018-01-20T04:48:50.746Z,945.74
2018-01-20T04:49:50.728Z,945.73
2018-01-20T04:50:50.710Z,945.77
2018-01-20T04:51:50.690Z,945.74
2018-01-20T04:52:50.671Z,945.78
2018-01-20T04:53:50.653Z,945.69
2018-01-20T04:54:50.635Z,945.66
2018-01-20T04:55:50.614Z,945.66
2018-01-20T04:56:50.597Z,945.65
2018-01-20T04:57:50.578Z,945.67
2018-01-20T04:58:50.559Z,945.69
2018-01-20T04:59:50.539Z,945.73
2018-01-20T05:00:50.522Z,945.78
2018-01-20T05:01:50.501Z,945.75
2018-01-20T05:02:50.483Z,945.79
2018-01-20T05:03:50.465Z,945.76
2018-01-20T05:04:50.445Z,945.74
2018-01-20T05:05:50.426Z,945.74
2018-01-20T05:06:50.406Z,945.76
2018-01-20T05:07:50.388Z,945.72
2018-01-20T05:08:50.390Z,945.75
2018-01-20T05:09:50.350Z,945.77
2018-01-20T05:10:50.330Z,945.75
2018-01-20T05:11:50.312Z,945.73
2018-01-20T05:12:50.315Z,945.75
2018-01-20T05:13:50.274Z,945.74
2018-01-20T05:14:50.254Z,945.74
2018-01-20T05:15:50.236Z,945.73
2018-01-20T05:16:50.217Z,945.72
2018-01-20T05:17:50.198Z,945.69
2018-01-20T05:18:50.179Z,945.72
2018-01-20T05:19:50.161Z,945.65
2018-01-20T05:20:50.143Z,945.6
2018-01-20T05:21:50.122Z,945.62
2018-01-20T05:22:50.103Z,945.65
2018-01-20T05:23:50.083Z,945.66
2018-01-20T05:24:50.066Z,945.61
2018-01-20T05:25:50.046Z,945.59
2018-01-20T05:26:50.026Z,945.63
2018-01-20T05:27:50.008Z,945.65
2018-01-20T05:28:49.989Z,945.6
2018-01-20T05:29:49.969Z,945.6
2018-01-20T05:30:49.950Z,945.65
2018-01-20T05:31:49.932Z,945.57
2018-01-20T05:32:49.914Z,945.6
2018-01-20T05:33:49.893Z,945.53
2018-01-20T05:34:49.874Z,945.52
2018-01-20T05:35:49.872Z,945.52
2018-01-20T05:36:49.851Z,945.47
2018-01-20T05:37:49.816Z,945.54
2018-01-20T05:38:49.797Z,945.48
2018-01-20T05:39:49.779Z,945.52
2018-01-20T05:40:49.759Z,945.53
2018-01-20T05:41:49.741Z,945.5
2018-01-20T05:42:49.722Z,945.51
2018-01-20T05:43:49.703Z,945.5
2018-01-20T05:44:49.682Z,945.48
2018-01-20T05:45:49.663Z,945.45
2018-01-20T05:46:49.647Z,945.5
2018-01-20T05:47:49.624Z,945.53
2018-01-20T05:48:49.656Z,945.46
2018-01-20T05:49:49.587Z,945.5
2018-01-20T05:50:49.568Z,945.5
2018-01-20T05:51:49.548Z,945.51
2018-01-20T05:52:49.529Z,945.51
2018-01-20T05:53:49.510Z,945.48
2018-01-20T05:54:49.491Z,945.5
2018-01-20T05:55:49.473Z,945.53
2018-01-20T05:56:49.453Z,945.5
2018-01-20T05:57:49.434Z,945.54
2018-01-20T05:58:49.414Z,945.54
2018-01-20T05:59:49.395Z,945.52
2018-01-20T06:00:49.375Z,945.46
2018-01-20T06:01:49.361Z,945.45
2018-01-20T06:02:49.337Z,945.46
2018-01-20T06:03:49.319Z,945.45
2018-01-20T06:04:49.300Z,945.43
2018-01-20T06:05:49.280Z,945.44
2018-01-20T06:06:49.260Z,945.42
2018-01-20T06:07:49.242Z,945.41
2018-01-20T06:08:49.224Z,945.38
2018-01-20T06:09:49.225Z,945.44
2018-01-20T06:10:49.186Z,945.41
2018-01-20T06:11:49.166Z,945.38
2018-01-20T06:12:49.148Z,945.39
2018-01-20T06:13:49.129Z,945.42
2018-01-20T06:14:49.110Z,945.42
2018-01-20T06:15:49.091Z,945.36
2018-01-20T06:16:49.071Z,945.34
2018-01-20T06:17:49.053Z,945.35
2018-01-20T06:18:49.033Z,945.38
2018-01-20T06:19:49.015Z,945.39
2018-01-20T06:20:48.995Z,945.4
2018-01-20T06:21:48.976Z,945.41
2018-01-20T06:22:48.958Z,945.38
2018-01-20T06:23:48.938Z,945.38
2018-01-20T06:24:48.920Z,945.37
2018-01-20T06:25:48.901Z,945.34
2018-01-20T06:26:48.883Z,945.36
2018-01-20T06:27:48.863Z,945.36
2018-01-20T06:28:48.843Z,945.35
2018-01-20T06:29:48.825Z,945.34
2018-01-20T06:30:48.808Z,945.29
2018-01-20T06:31:48.789Z,945.36
2018-01-20T06:32:48.771Z,945.32
2018-01-20T06:33:48.750Z,945.35
2018-01-20T06:34:48.730Z,945.35
2018-01-20T06:35:48.712Z,945.38
2018-01-20T06:36:48.694Z,945.38
2018-01-20T06:37:48.675Z,945.37
2018-01-20T06:38:48.655Z,945.38
2018-01-20T06:39:48.637Z,945.36
2018-01-20T06:40:48.632Z,945.37
2018-01-20T06:41:48.598Z,945.36
2018-01-20T06:42:48.580Z,945.38
2018-01-20T06:43:48.561Z,945.3
2018-01-20T06:44:48.543Z,945.36
2018-01-20T06:45:48.522Z,945.33
2018-01-20T06:46:48.523Z,945.34
2018-01-20T06:47:48.484Z,945.38
2018-01-20T06:48:48.470Z,945.34
2018-01-20T06:49:48.446Z,945.35
2018-01-20T06:50:48.427Z,945.34
2018-01-20T06:51:48.427Z,945.29
2018-01-20T06:52:48.388Z,945.28
2018-01-20T06:53:48.370Z,945.28
2018-01-20T06:54:48.373Z,945.25
2018-01-20T06:55:48.335Z,945.33
2018-01-20T06:56:48.313Z,945.26
2018-01-20T06:57:48.293Z,945.24
2018-01-20T06:58:48.275Z,945.23
2018-01-20T06:59:48.256Z,945.24
2018-01-20T07:00:48.235Z,945.31
2018-01-20T07:01:48.218Z,945.25
2018-01-20T07:02:48.198Z,945.23
2018-01-20T07:03:48.178Z,945.24
2018-01-20T07:04:48.159Z,945.26
2018-01-20T07:05:48.141Z,945.3
2018-01-20T07:06:48.122Z,945.29
2018-01-20T07:07:48.104Z,945.28
2018-01-20T07:08:48.084Z,945.33
2018-01-20T07:09:48.065Z,945.3
2018-01-20T07:10:48.047Z,945.29
2018-01-20T07:11:48.029Z,945.29
2018-01-20T07:12:48.057Z,945.32
2018-01-20T07:13:47.989Z,945.31
2018-01-20T07:14:47.981Z,945.33
2018-01-20T07:15:47.951Z,945.35
2018-01-20T07:16:47.933Z,945.33
2018-01-20T07:17:47.914Z,945.35
2018-01-20T07:18:47.893Z,945.37
2018-01-20T07:19:47.878Z,945.4
2018-01-20T07:20:47.857Z,945.43
2018-01-20T07:21:47.837Z,945.41
2018-01-20T07:22:47.817Z,945.39
2018-01-20T07:23:47.800Z,945.37
2018-01-20T07:24:47.780Z,945.37
2018-01-20T07:25:47.761Z,945.36
2018-01-20T07:26:47.745Z,945.42
2018-01-20T07:27:47.723Z,945.38
2018-01-20T07:28:47.756Z,945.36
2018-01-20T07:29:47.736Z,945.4
2018-01-20T07:30:47.668Z,945.35
2018-01-20T07:31:47.649Z,945.31
2018-01-20T07:32:47.633Z,945.31
2018-01-20T07:33:47.610Z,945.36
2018-01-20T07:34:47.591Z,945.33
2018-01-20T07:35:47.574Z,945.34
2018-01-20T07:36:47.555Z,945.33
2018-01-20T07:37:47.539Z,945.3
2018-01-20T07:38:47.516Z,945.26
2018-01-20T07:39:47.507Z,945.25
2018-01-20T07:40:47.478Z,945.27
2018-01-20T07:41:47.461Z,945.27
2018-01-20T07:42:47.443Z,945.26
2018-01-20T07:43:47.424Z,945.27
2018-01-20T07:44:47.403Z,945.21
2018-01-20T07:45:47.386Z,945.16
2018-01-20T07:46:47.372Z,945.19
2018-01-20T07:47:47.348Z,945.17
2018-01-20T07:48:47.329Z,945.14
2018-01-20T07:49:47.310Z,945.18
2018-01-20T07:50:47.292Z,945.14
2018-01-20T07:51:47.273Z,945.19
2018-01-20T07:52:47.254Z,945.19
2018-01-20T07:53:47.236Z,945.16
2018-01-20T07:54:47.218Z,945.21
2018-01-20T07:55:47.200Z,945.17
2018-01-20T07:56:47.181Z,945.18
2018-01-20T07:57:47.166Z,945.17
2018-01-20T07:58:47.144Z,945.2
2018-01-20T07:59:47.129Z,945.2
2018-01-20T08:00:47.108Z,945.15
2018-01-20T08:01:47.088Z,945.21
2018-01-20T08:02:47.072Z,945.2
2018-01-20T08:03:47.050Z,945.16
2018-01-20T08:04:47.033Z,945.25
2018-01-20T08:05:47.015Z,945.2
2018-01-20T08:06:46.995Z,945.21
2018-01-20T08:07:46.977Z,945.26
2018-01-20T08:08:46.966Z,945.16
2018-01-20T08:09:46.940Z,945.2
2018-01-20T08:10:46.923Z,945.19
2018-01-20T08:11:46.904Z,945.2
2018-01-20T08:12:46.885Z,945.18
2018-01-20T08:13:46.866Z,945.14
2018-01-20T08:14:46.847Z,945.18
2018-01-20T08:15:46.829Z,945.18
2018-01-20T08:16:46.809Z,945.19
2018-01-20T08:17:46.793Z,945.21
2018-01-20T08:18:46.773Z,945.15
2018-01-20T08:19:46.756Z,945.21
2018-01-20T08:20:46.737Z,945.22
2018-01-20T08:21:46.720Z,945.19
2018-01-20T08:22:46.699Z,945.23
2018-01-20T08:23:46.682Z,945.22
2018-01-20T08:24:46.666Z,945.2
2018-01-20T08:25:46.645Z,945.13
2018-01-20T08:26:46.629Z,945.18
2018-01-20T08:27:46.607Z,945.16
2018-01-20T08:28:46.590Z,945.17
2018-01-20T08:29:46.570Z,945.16
2018-01-20T08:30:46.579Z,945.15
2018-01-20T08:31:46.534Z,945.19
2018-01-20T08:32:46.514Z,945.17
2018-01-20T08:33:46.503Z,945.23
2018-01-20T08:34:46.479Z,945.25
2018-01-20T08:35:46.473Z,945.22
2018-01-20T08:36:46.442Z,945.27
2018-01-20T08:37:46.424Z,945.25
2018-01-20T08:38:46.405Z,945.24
2018-01-20T08:39:46.386Z,945.22
2018-01-20T08:40:46.368Z,945.25
2018-01-20T08:41:46.349Z,945.16
2018-01-20T08:42:46.331Z,945.16
2018-01-20T08:43:46.314Z,945.13
2018-01-20T08:44:46.297Z,945.15
2018-01-20T08:45:46.277Z,945.16
2018-01-20T08:46:46.258Z,945.15
2018-01-20T08:47:46.242Z,945.11
2018-01-20T08:48:46.221Z,945.11
2018-01-20T08:49:46.202Z,945.14
2018-01-20T08:50:46.184Z,945.12
2018-01-20T08:51:46.166Z,945.14
2018-01-20T08:52:46.149Z,945.13
2018-01-20T08:53:46.129Z,945.06
2018-01-20T08:54:46.129Z,945.14
2018-01-20T08:55:46.093Z,945.12
2018-01-20T08:56:46.074Z,945.12
2018-01-20T08:57:46.056Z,945.14
2018-01-20T08:58:46.038Z,945.08
2018-01-20T08:59:46.020Z,945.08
2018-01-20T09:00:46.001Z,945.11
2018-01-20T09:01:46.188Z,945.12
2018-01-20T09:02:45.965Z,945.15
2018-01-20T09:03:45.969Z,945.18
2018-01-20T09:04:45.930Z,945.14
2018-01-20T09:05:45.912Z,945.13
2018-01-20T09:06:45.893Z,945.2
2018-01-20T09:07:45.877Z,945.2
2018-01-20T09:08:45.857Z,945.18
2018-01-20T09:09:45.839Z,945.18
2018-01-20T09:10:45.822Z,945.18
2018-01-20T09:11:45.802Z,945.18
2018-01-20T09:12:45.785Z,945.14
2018-01-20T09:13:45.771Z,945.16
2018-01-20T09:14:45.754Z,945.19
2018-01-20T09:15:45.738Z,945.17
2018-01-20T09:16:45.713Z,945.21
2018-01-20T09:17:45.696Z,945.2
2018-01-20T09:18:45.678Z,945.16
2018-01-20T09:19:45.662Z,945.19
2018-01-20T09:20:45.660Z,945.18
2018-01-20T09:21:45.626Z,945.15
2018-01-20T09:22:45.605Z,945.13
2018-01-20T09:23:45.589Z,945.16
2018-01-20T09:24:45.570Z,945.18
2018-01-20T09:25:45.552Z,945.2
2018-01-20T09:26:45.536Z,945.23
2018-01-20T09:27:45.516Z,945.19
2018-01-20T09:28:45.500Z,945.15
2018-01-20T09:29:45.481Z,945.18
2018-01-20T09:30:45.463Z,945.18
2018-01-20T09:31:45.449Z,945.17
2018-01-20T09:32:45.428Z,945.26
2018-01-20T09:33:45.408Z,945.28
2018-01-20T09:34:45.392Z,945.22
2018-01-20T09:35:45.373Z,945.23
2018-01-20T09:36:45.355Z,945.21
2018-01-20T09:37:45.338Z,945.2
2018-01-20T09:38:45.338Z,945.2
2018-01-20T09:39:45.302Z,945.2
2018-01-20T09:40:45.287Z,945.16
2018-01-20T09:41:45.269Z,945.19
2018-01-20T09:42:45.277Z,945.18
2018-01-20T09:43:45.234Z,945.18
2018-01-20T09:44:45.216Z,945.17
2018-01-20T09:45:45.201Z,945.15
2018-01-20T09:46:45.183Z,945.12
2018-01-20T09:47:45.164Z,945.15
2018-01-20T09:48:45.157Z,945.14
2018-01-20T09:49:45.129Z,945.15
2018-01-20T09:50:45.113Z,945.17
2018-01-20T09:51:45.095Z,945.07
2018-01-20T09:52:45.077Z,945.16
2018-01-20T09:53:45.059Z,945.14
2018-01-20T09:54:45.042Z,945.16
2018-01-20T09:55:45.503Z,945.15
2018-01-20T09:56:45.061Z,945.14
2018-01-20T09:57:44.989Z,945.1
2018-01-20T09:58:44.974Z,945.12
2018-01-20T09:59:44.976Z,945.1
2018-01-20T10:00:44.936Z,945.11
2018-01-20T10:01:44.921Z,945.11
2018-01-20T10:02:44.903Z,945.07
2018-01-20T10:03:44.885Z,945.07
2018-01-20T10:04:44.869Z,945.09
2018-01-20T10:05:44.871Z,945.07
2018-01-20T10:06:44.832Z,945.06
2018-01-20T10:07:44.815Z,945.07
2018-01-20T10:08:44.798Z,945.03
2018-01-20T10:09:44.783Z,945.02
2018-01-20T10:10:44.763Z,944.99
2018-01-20T10:11:44.747Z,944.94
2018-01-20T10:12:44.747Z,944.98
2018-01-20T10:13:44.711Z,944.93
2018-01-20T10:14:44.696Z,944.9
2018-01-20T10:15:44.676Z,944.91
2018-01-20T10:16:44.659Z,944.93
2018-01-20T10:17:44.642Z,944.91
2018-01-20T10:18:44.626Z,944.9
2018-01-20T10:19:44.608Z,944.92
2018-01-20T10:20:44.590Z,944.91
2018-01-20T10:21:44.573Z,944.85
2018-01-20T10:22:44.556Z,944.87
2018-01-20T10:23:44.538Z,944.81
2018-01-20T10:24:44.524Z,944.84
2018-01-20T10:25:44.505Z,944.84
2018-01-20T10:26:44.488Z,944.8
2018-01-20T10:27:44.470Z,944.78
2018-01-20T10:28:44.453Z,944.74
2018-01-20T10:29:44.436Z,944.76
2018-01-20T10:30:44.420Z,944.76
2018-01-20T10:31:44.402Z,944.79
2018-01-20T10:32:44.385Z,944.75
2018-01-20T10:33:44.368Z,944.77
2018-01-20T10:34:44.351Z,944.74
2018-01-20T10:35:44.333Z,944.72
2018-01-20T10:36:44.317Z,944.72
2018-01-20T10:37:44.300Z,944.68
2018-01-20T10:38:44.285Z,944.72
2018-01-20T10:39:44.267Z,944.71
2018-01-20T10:40:44.249Z,944.68
2018-01-20T10:41:44.233Z,944.64
2018-01-20T10:42:44.216Z,944.66
2018-01-20T10:43:44.198Z,944.62
2018-01-20T10:44:44.181Z,944.62
2018-01-20T10:45:44.165Z,944.66
2018-01-20T10:46:44.148Z,944.65
2018-01-20T10:47:44.130Z,944.62
2018-01-20T10:48:44.113Z,944.63
2018-01-20T10:49:44.101Z,944.62
2018-01-20T10:50:44.099Z,944.65
2018-01-20T10:51:44.063Z,944.62
2018-01-20T10:52:44.045Z,944.63
2018-01-20T10:53:44.028Z,944.61
2018-01-20T10:54:44.010Z,944.64
2018-01-20T10:55:43.994Z,944.55
2018-01-20T10:56:43.977Z,944.63
2018-01-20T10:57:43.958Z,944.54
2018-01-20T10:58:43.942Z,944.53
2018-01-20T10:59:43.926Z,944.51
2018-01-20T11:00:43.928Z,944.46
2018-01-20T11:01:43.892Z,944.44
2018-01-20T11:02:43.873Z,944.47
2018-01-20T11:03:43.872Z,944.52
2018-01-20T11:04:43.839Z,944.48
2018-01-20T11:05:43.822Z,944.49
2018-01-20T11:06:43.805Z,944.5
2018-01-20T11:07:43.797Z,944.46
2018-01-20T11:08:43.771Z,944.48
2018-01-20T11:09:43.777Z,944.45
2018-01-20T11:10:43.739Z,944.43
2018-01-20T11:11:43.722Z,944.39
2018-01-20T11:12:43.704Z,944.43
2018-01-20T11:13:43.690Z,944.46
2018-01-20T11:14:43.673Z,944.4
2018-01-20T11:15:43.657Z,944.34
2018-01-20T11:16:43.639Z,944.32
2018-01-20T11:17:43.623Z,944.32
2018-01-20T11:18:43.609Z,944.25
2018-01-20T11:19:43.592Z,944.27
2018-01-20T11:20:43.572Z,944.3
2018-01-20T11:21:43.557Z,944.27
2018-01-20T11:22:43.543Z,944.25
2018-01-20T11:23:43.523Z,944.25
2018-01-20T11:24:43.510Z,944.22
2018-01-20T11:25:43.492Z,944.24
2018-01-20T11:26:43.473Z,944.23
2018-01-20T11:27:43.458Z,944.21
2018-01-20T11:28:43.441Z,944.16
2018-01-20T11:29:43.426Z,944.15
2018-01-20T11:30:43.407Z,944.14
2018-01-20T11:31:43.391Z,944.13
2018-01-20T11:32:43.376Z,944.08
2018-01-20T11:33:43.361Z,944.03
2018-01-20T11:34:43.362Z,944.06
2018-01-20T11:35:43.326Z,944.06
2018-01-20T11:36:43.326Z,944.03
2018-01-20T11:37:43.292Z,943.99
2018-01-20T11:38:43.276Z,944.02
2018-01-20T11:39:43.260Z,944
2018-01-20T11:40:43.242Z,943.98
2018-01-20T11:41:43.226Z,943.94
2018-01-20T11:42:43.210Z,943.9
2018-01-20T11:43:43.194Z,943.84
2018-01-20T11:44:43.176Z,943.85
2018-01-20T11:45:43.162Z,943.8
2018-01-20T11:46:43.145Z,943.8
2018-01-20T11:47:43.126Z,943.83
2018-01-20T11:48:43.110Z,943.79
2018-01-20T11:49:43.094Z,943.81
2018-01-20T11:50:43.078Z,943.79
2018-01-20T11:51:43.063Z,943.77
2018-01-20T11:52:43.046Z,943.73
2018-01-20T11:53:43.033Z,943.65
2018-01-20T11:54:43.014Z,943.62
2018-01-20T11:55:42.999Z,943.64
2018-01-20T11:56:42.981Z,943.55
2018-01-20T11:57:42.966Z,943.58
2018-01-20T11:58:42.949Z,943.58
2018-01-20T11:59:42.932Z,943.6
2018-01-20T12:00:42.918Z,943.54
2018-01-20T12:01:42.903Z,943.5
2018-01-20T12:02:42.885Z,943.51
2018-01-20T12:03:42.868Z,943.53
2018-01-20T12:04:42.853Z,943.48
2018-01-20T12:05:42.837Z,943.56
2018-01-20T12:06:42.820Z,943.54
2018-01-20T12:07:42.803Z,943.53
2018-01-20T12:08:42.787Z,943.52
2018-01-20T12:09:42.796Z,943.52
2018-01-20T12:10:42.755Z,943.44
2018-01-20T12:11:42.741Z,943.48
2018-01-20T12:13:42.711Z,943.4
2018-01-20T12:14:42.690Z,943.4
2018-01-20T12:15:42.696Z,943.4
2018-01-20T12:16:42.657Z,943.38
2018-01-20T12:17:42.641Z,943.39
2018-01-20T12:18:42.623Z,943.4
2018-01-20T12:19:42.608Z,943.38
2018-01-20T12:20:42.591Z,943.38
2018-01-20T12:21:42.574Z,943.37
2018-01-20T12:22:42.556Z,943.33
2018-01-20T12:23:42.539Z,943.33
2018-01-20T12:24:42.525Z,943.35
2018-01-20T12:25:42.509Z,943.35
2018-01-20T12:26:42.491Z,943.33
2018-01-20T12:27:42.474Z,943.29
2018-01-20T12:28:42.457Z,943.26
2018-01-20T12:29:42.439Z,943.22
2018-01-20T12:30:42.424Z,943.19
2018-01-20T12:31:42.408Z,943.19
2018-01-20T12:32:42.388Z,943.18